Time;durP1;ratioP1;P1;durP2;ratioP2;P2;SDS_P1;SDS_P2;PMS_P1;PMS_P2;Temp;Humidity;BMP_temperature;BMP_pressure;BME280_temperature;BME280_humidity;BME280_pressure;Samples;Min_cycle;Max_cycle;Signal;HPM_P1;HPM_P2
2023/03/25 00:01:48;;;;;;;;;;;;;;;11.51;67.73;96147.46;108843;1251;95747;-75
2023/03/25 00:04:17;;;;;;;;;;;;;;;11.45;67.71;96157.98;108904;1251;96394;-75
2023/03/25 00:06:45;;;;;;;;;;;;;;;11.45;67.67;96165.42;108883;1251;103014;-75
2023/03/25 00:09:13;;;;;;;;;;;;;;;11.43;67.87;96165.88;108947;1250;101268;-73
2023/03/25 00:11:41;;;;;;;;;;;;;;;11.36;67.90;96165.30;108834;1251;100017;-73
2023/03/25 00:14:11;;;;;;;;;;;;;;;11.32;68.01;96162.20;108851;1251;95516;-73
2023/03/25 00:16:39;;;;;;;;;;;;;;;11.29;68.19;96157.61;108833;1251;96294;-76
2023/03/25 00:19:08;;;;;;;;;;;;;;;11.28;68.28;96156.52;108894;1251;103543;-73
2023/03/25 00:21:36;;;;;;;;;;;;;;;11.29;68.29;96156.58;108865;1251;101769;-74
2023/03/25 00:24:04;;;;;;;;;;;;;;;11.27;68.49;96149.02;108868;1251;99621;-73
2023/03/25 00:26:32;;;;;;;;;;;;;;;11.25;68.41;96146.94;108845;1254;95550;-74
2023/03/25 00:29:00;;;;;;;;;;;;;;;11.28;68.52;96142.61;108640;1252;96094;-74
2023/03/25 00:31:28;;;;;;;;;;;;;;;11.29;68.63;96141.83;108844;1251;102521;-74
2023/03/25 00:33:56;;;;;;;;;;;;;;;11.31;68.42;96135.01;108865;1251;101304;-74
2023/03/25 00:36:24;;;;;;;;;;;;;;;11.30;68.25;96120.35;108831;1251;100153;-73
2023/03/25 00:38:52;;;;;;;;;;;;;;;11.32;68.17;96125.19;108845;1251;95497;-74
2023/03/25 00:41:24;;;;;;;;;;;;;;;11.32;68.13;96123.35;108910;1251;95685;-73
2023/03/25 00:43:53;;;;;;;;;;;;;;;11.31;68.27;96124.95;108901;1254;103307;-73
2023/03/25 00:46:22;;;;;;;;;;;;;;;11.28;68.47;96128.52;108861;1251;101294;-74
2023/03/25 00:48:51;;;;;;;;;;;;;;;11.26;68.59;96128.52;108615;1251;99483;-73
2023/03/25 00:51:20;;;;;;;;;;;;;;;11.22;68.73;96122.86;108844;1251;95920;-74
2023/03/25 00:53:52;;;;;;;;;;;;;;;11.20;68.77;96109.98;108931;1251;95965;-74
2023/03/25 00:56:20;;;;;;;;;;;;;;;11.22;68.63;96107.96;108842;1251;103738;-74
2023/03/25 00:58:48;;;;;;;;;;;;;;;11.21;68.64;96106.60;108636;1254;109819;-73
2023/03/25 01:01:22;;;;;;;;;;;;;;;11.19;68.66;96105.05;108844;1251;100091;-76
2023/03/25 01:03:56;;;;;;;;;;;;;;;11.16;68.62;96106.08;108806;1251;95587;-73
2023/03/25 01:06:31;;;;;;;;;;;;;;;11.13;68.76;96100.90;108898;1251;96059;-75
2023/03/25 01:09:00;;;;;;;;;;;;;;;11.11;68.70;96100.98;108858;1251;103538;-73
2023/03/25 01:11:33;;;;;;;;;;;;;;;11.08;68.74;96097.44;108880;1251;101257;-75
2023/03/25 01:14:02;;;;;;;;;;;;;;;11.05;68.94;96090.63;108840;1251;99788;-73
2023/03/25 01:16:30;;;;;;;;;;;;;;;11.01;68.87;96089.74;108816;1251;95671;-75
2023/03/25 01:18:58;;;;;;;;;;;;;;;10.99;68.85;96088.74;108896;1255;95549;-73
2023/03/25 01:21:26;;;;;;;;;;;;;;;10.99;68.87;96085.33;108818;1251;103656;-75
2023/03/25 01:23:54;;;;;;;;;;;;;;;10.99;68.90;96086.80;108878;1251;101175;-73
2023/03/25 01:26:22;;;;;;;;;;;;;;;10.98;69.00;96087.39;108708;1251;98784;-73
2023/03/25 01:28:50;;;;;;;;;;;;;;;10.95;69.06;96090.79;108793;1251;95553;-73
2023/03/25 01:31:18;;;;;;;;;;;;;;;10.93;69.05;96097.60;108855;1251;95580;-74
2023/03/25 01:33:46;;;;;;;;;;;;;;;10.91;69.31;96094.49;108689;1254;102687;-75
2023/03/25 01:36:14;;;;;;;;;;;;;;;10.83;69.58;96089.95;108894;1251;101340;-76
2023/03/25 01:38:42;;;;;;;;;;;;;;;10.75;69.76;96080.11;108815;1251;100010;-75
2023/03/25 01:41:10;;;;;;;;;;;;;;;10.73;69.85;96076.72;108831;1251;95613;-75
2023/03/25 01:43:38;;;;;;;;;;;;;;;10.71;69.89;96075.50;108892;1251;95637;-73
2023/03/25 01:46:09;;;;;;;;;;;;;;;10.72;70.00;96075.61;108881;1251;103397;-74
2023/03/25 01:48:39;;;;;;;;;;;;;;;10.74;69.93;96073.70;108931;1251;102460;-74
2023/03/25 01:51:13;;;;;;;;;;;;;;;10.74;70.07;96068.63;108879;1251;99040;-73
2023/03/25 01:53:41;;;;;;;;;;;;;;;10.67;70.15;96066.17;108860;1251;95552;-74
2023/03/25 01:56:12;;;;;;;;;;;;;;;10.60;70.30;96063.81;108820;1251;95615;-73
2023/03/25 01:58:41;;;;;;;;;;;;;;;10.57;70.47;96066.17;108875;1251;103254;-74
2023/03/25 02:01:12;;;;;;;;;;;;;;;10.55;70.60;96066.90;108790;1251;101425;-74
2023/03/25 02:03:49;;;;;;;;;;;;;;;10.56;70.72;96065.98;108846;1251;100004;-74
2023/03/25 02:06:21;;;;;;;;;;;;;;;10.54;70.80;96059.70;108830;1255;95529;-75
2023/03/25 02:08:50;;;;;;;;;;;;;;;10.54;70.80;96059.21;108889;1251;95682;-74
2023/03/25 02:11:18;;;;;;;;;;;;;;;10.53;70.98;96055.46;108900;1254;111773;-73
2023/03/25 02:13:46;;;;;;;;;;;;;;;10.52;70.92;96056.20;108848;1254;101327;-74
2023/03/25 02:16:23;;;;;;;;;;;;;;;10.52;71.01;96057.81;108853;1251;99895;-73
2023/03/25 02:18:51;;;;;;;;;;;;;;;10.53;71.05;96063.39;108809;1251;97045;-74
2023/03/25 02:21:44;;;;;;;;;;;;;;;10.56;70.92;96070.38;108842;1251;95670;-73
2023/03/25 02:24:24;;;;;;;;;;;;;;;10.59;71.18;96072.52;108851;1251;103749;-75
2023/03/25 02:26:55;;;;;;;;;;;;;;;10.54;71.35;96074.98;108880;1251;101482;-74
2023/03/25 02:29:23;;;;;;;;;;;;;;;10.53;71.37;96072.89;108837;1251;100081;-74
2023/03/25 02:32:09;;;;;;;;;;;;;;;10.51;71.49;96074.76;108812;1251;95661;-74
2023/03/25 02:34:45;;;;;;;;;;;;;;;10.51;71.64;96079.23;108871;1251;95573;-76
2023/03/25 02:37:29;;;;;;;;;;;;;;;10.52;71.89;96078.77;108822;1251;103421;-74
2023/03/25 02:40:06;;;;;;;;;;;;;;;10.50;71.90;96071.19;108822;1251;100343;-74
2023/03/25 02:42:37;;;;;;;;;;;;;;;10.51;71.98;96071.99;108886;1251;99136;-74
2023/03/25 02:45:09;;;;;;;;;;;;;;;10.51;72.11;96070.23;108806;1251;95534;-75
2023/03/25 02:47:41;;;;;;;;;;;;;;;10.51;72.16;96075.77;108849;1252;95762;-74
2023/03/25 02:50:12;;;;;;;;;;;;;;;10.49;72.18;96078.68;108823;1251;103904;-74
2023/03/25 02:52:43;;;;;;;;;;;;;;;10.48;72.43;96078.88;108852;1251;101368;-74
2023/03/25 02:55:13;;;;;;;;;;;;;;;10.46;72.47;96077.55;108874;1251;99870;-75
2023/03/25 02:57:44;;;;;;;;;;;;;;;10.44;72.62;96073.63;108865;1251;97049;-74
2023/03/25 03:00:14;;;;;;;;;;;;;;;10.45;72.67;96075.31;108822;1251;95746;-75
2023/03/25 03:02:49;;;;;;;;;;;;;;;10.45;72.62;96077.27;108873;1253;103511;-74
2023/03/25 03:05:25;;;;;;;;;;;;;;;10.42;72.85;96076.83;108831;1251;101593;-74
2023/03/25 03:08:17;;;;;;;;;;;;;;;10.39;73.03;96078.59;108860;1251;99659;-74
2023/03/25 03:11:06;;;;;;;;;;;;;;;10.38;73.23;96080.97;108225;1259;96158;-74
2023/03/25 03:13:37;;;;;;;;;;;;;;;10.37;73.29;96085.27;108253;1260;95932;-74
2023/03/25 03:16:23;;;;;;;;;;;;;;;10.36;73.38;96087.77;108233;1260;112238;-74
2023/03/25 03:19:01;;;;;;;;;;;;;;;10.35;73.57;96084.52;108246;1259;101512;-74
2023/03/25 03:21:50;;;;;;;;;;;;;;;10.35;73.57;96081.45;108212;1259;99904;-74
2023/03/25 03:24:24;;;;;;;;;;;;;;;10.37;73.54;96082.79;107868;1266;95653;-73
2023/03/25 03:27:07;;;;;;;;;;;;;;;10.39;73.64;96081.07;107888;1265;96360;-75
2023/03/25 03:29:38;;;;;;;;;;;;;;;10.39;73.73;96082.54;107864;1265;103557;-74
2023/03/25 03:32:10;;;;;;;;;;;;;;;10.39;73.93;96086.64;107897;1265;101564;-75
2023/03/25 03:34:43;;;;;;;;;;;;;;;10.38;74.01;96087.82;107852;1266;100190;-73
2023/03/25 03:37:17;;;;;;;;;;;;;;;10.37;74.09;96084.30;107768;1267;96162;-75
2023/03/25 03:39:47;;;;;;;;;;;;;;;10.38;74.11;96094.50;107696;1267;95638;-73
2023/03/25 03:42:21;;;;;;;;;;;;;;;10.39;74.32;96098.27;107885;1265;111001;-74
2023/03/25 03:45:01;;;;;;;;;;;;;;;10.38;74.40;96097.52;107888;1267;100437;-73
2023/03/25 03:47:31;;;;;;;;;;;;;;;10.35;74.38;96099.25;107992;1266;98965;-74
2023/03/25 03:50:02;;;;;;;;;;;;;;;10.35;74.63;96098.88;108321;1257;95662;-74
2023/03/25 03:52:54;;;;;;;;;;;;;;;10.34;74.75;96098.97;108317;1257;95981;-74
2023/03/25 03:55:27;;;;;;;;;;;;;;;10.35;74.69;96103.08;108357;1257;103982;-74
2023/03/25 03:58:01;;;;;;;;;;;;;;;10.34;74.77;96106.24;108383;1257;101287;-74
2023/03/25 04:00:32;;;;;;;;;;;;;;;10.34;74.82;96112.92;108284;1258;99916;-74
2023/03/25 04:03:04;;;;;;;;;;;;;;;10.34;74.91;96120.02;108824;1251;95654;-74
2023/03/25 04:05:33;;;;;;;;;;;;;;;10.33;74.93;96115.77;108712;1254;95940;-74
2023/03/25 04:08:10;;;;;;;;;;;;;;;10.33;74.96;96112.20;108900;1251;103445;-74
2023/03/25 04:10:44;;;;;;;;;;;;;;;10.32;74.98;96112.79;108586;1250;100519;-74
2023/03/25 04:13:15;;;;;;;;;;;;;;;10.31;75.10;96115.30;108875;1251;99903;-74
2023/03/25 04:15:43;;;;;;;;;;;;;;;10.30;75.20;96115.53;108850;1251;95833;-75
2023/03/25 04:18:11;;;;;;;;;;;;;;;10.27;75.16;96117.42;108713;1251;95701;-74
2023/03/25 04:20:43;;;;;;;;;;;;;;;10.26;75.27;96116.45;108701;1251;103265;-74
2023/03/25 04:23:14;;;;;;;;;;;;;;;10.28;75.37;96116.09;108690;1251;100511;-75
2023/03/25 04:25:48;;;;;;;;;;;;;;;10.28;75.24;96115.49;108877;1251;99891;-75
2023/03/25 04:28:17;;;;;;;;;;;;;;;10.28;75.34;96117.92;108843;1251;95640;-74
2023/03/25 04:30:47;;;;;;;;;;;;;;;10.28;75.38;96119.16;108762;1251;95727;-75
2023/03/25 04:33:16;;;;;;;;;;;;;;;10.26;75.34;96123.36;108924;1251;103757;-74
2023/03/25 04:35:44;;;;;;;;;;;;;;;10.26;75.32;96124.17;108884;1251;101400;-74
2023/03/25 04:38:16;;;;;;;;;;;;;;;10.27;75.47;96116.72;108874;1251;100059;-75
2023/03/25 04:40:46;;;;;;;;;;;;;;;10.25;75.38;96113.75;108728;1251;95609;-75
2023/03/25 04:43:15;;;;;;;;;;;;;;;10.24;75.49;96108.50;108929;1251;95839;-74
2023/03/25 04:45:47;;;;;;;;;;;;;;;10.22;75.62;96108.21;108868;1251;103037;-75
2023/03/25 04:48:22;;;;;;;;;;;;;;;10.21;75.72;96114.19;108904;1251;101540;-74
2023/03/25 04:50:51;;;;;;;;;;;;;;;10.22;75.76;96119.23;108871;1251;99804;-74
2023/03/25 04:53:19;;;;;;;;;;;;;;;10.21;75.83;96127.02;108886;1251;95703;-73
2023/03/25 04:55:48;;;;;;;;;;;;;;;10.18;75.80;96131.42;108911;1251;95690;-75
2023/03/25 04:58:16;;;;;;;;;;;;;;;10.18;75.83;96133.66;108861;1251;103089;-73
2023/03/25 05:00:45;;;;;;;;;;;;;;;10.16;76.05;96132.55;108869;1250;101451;-75
2023/03/25 05:03:14;;;;;;;;;;;;;;;10.14;76.07;96133.49;108919;1251;100023;-75
2023/03/25 05:05:42;;;;;;;;;;;;;;;10.16;76.15;96139.86;108601;1254;95633;-75
2023/03/25 05:08:10;;;;;;;;;;;;;;;10.18;76.11;96144.04;108882;1251;95558;-74
2023/03/25 05:10:39;;;;;;;;;;;;;;;10.20;76.15;96147.33;108874;1251;103726;-75
2023/03/25 05:13:07;;;;;;;;;;;;;;;10.17;76.26;96149.68;108751;1251;101399;-74
2023/03/25 05:15:38;;;;;;;;;;;;;;;10.12;76.26;96150.58;108871;1251;99797;-74
2023/03/25 05:18:13;;;;;;;;;;;;;;;10.01;76.45;96150.05;108874;1251;95766;-75
2023/03/25 05:20:43;;;;;;;;;;;;;;;9.95;76.44;96153.32;108886;1251;95802;-73
2023/03/25 05:23:16;;;;;;;;;;;;;;;9.92;76.44;96155.61;108901;1251;103718;-75
2023/03/25 05:25:46;;;;;;;;;;;;;;;9.89;76.35;96156.48;108895;1251;101304;-73
2023/03/25 05:28:15;;;;;;;;;;;;;;;9.84;76.23;96166.02;108686;1251;100004;-74
2023/03/25 05:30:44;;;;;;;;;;;;;;;9.79;76.10;96174.09;108942;1251;95606;-74
2023/03/25 05:33:14;;;;;;;;;;;;;;;9.75;76.05;96179.09;108920;1251;95662;-73
2023/03/25 05:35:42;;;;;;;;;;;;;;;9.79;76.10;96184.61;108940;1250;103159;-74
2023/03/25 05:38:12;;;;;;;;;;;;;;;9.81;76.26;96186.21;108897;1251;101096;-74
2023/03/25 05:40:40;;;;;;;;;;;;;;;9.84;76.35;96189.52;108886;1251;100117;-75
2023/03/25 05:43:08;;;;;;;;;;;;;;;9.88;76.41;96190.63;108878;1251;95672;-74
2023/03/25 05:45:36;;;;;;;;;;;;;;;9.91;76.41;96194.99;108938;1251;95613;-74
2023/03/25 05:48:04;;;;;;;;;;;;;;;9.91;76.34;96198.23;108945;1251;102109;-74
2023/03/25 05:50:32;;;;;;;;;;;;;;;9.92;76.49;96202.19;108915;1251;101300;-73
2023/03/25 05:53:00;;;;;;;;;;;;;;;9.91;76.49;96195.96;108881;1251;100134;-74
2023/03/25 05:55:28;;;;;;;;;;;;;;;9.88;76.48;96200.16;108912;1251;95529;-73
2023/03/25 05:57:57;;;;;;;;;;;;;;;9.83;76.29;96204.30;108898;1251;96413;-74
2023/03/25 06:00:25;;;;;;;;;;;;;;;9.80;76.27;96201.76;108803;1253;103608;-74
2023/03/25 06:02:53;;;;;;;;;;;;;;;9.76;76.21;96200.23;108890;1251;101170;-74
2023/03/25 06:05:23;;;;;;;;;;;;;;;9.70;76.23;96201.39;108859;1251;100260;-73
2023/03/25 06:07:54;;;;;;;;;;;;;;;9.69;76.01;96206.80;108880;1251;95782;-74
2023/03/25 06:10:23;;;;;;;;;;;;;;;9.69;76.07;96206.80;108795;1251;95598;-74
2023/03/25 06:12:52;;;;;;;;;;;;;;;9.67;76.14;96211.23;108817;1251;103107;-73
2023/03/25 06:15:27;;;;;;;;;;;;;;;9.63;76.15;96211.47;108877;1251;101189;-74
2023/03/25 06:17:58;;;;;;;;;;;;;;;9.58;76.18;96214.91;108878;1251;99903;-74
2023/03/25 06:20:26;;;;;;;;;;;;;;;9.56;76.24;96217.55;108886;1251;95574;-74
2023/03/25 06:22:54;;;;;;;;;;;;;;;9.54;76.30;96217.98;108930;1251;96389;-73
2023/03/25 06:25:23;;;;;;;;;;;;;;;9.50;76.23;96221.77;108962;1251;103634;-74
2023/03/25 06:27:51;;;;;;;;;;;;;;;9.46;76.23;96222.54;108882;1250;101245;-74
2023/03/25 06:30:20;;;;;;;;;;;;;;;9.43;76.21;96223.90;108855;1251;100105;-74
2023/03/25 06:32:49;;;;;;;;;;;;;;;9.40;76.21;96223.80;108874;1251;95602;-74
2023/03/25 06:35:18;;;;;;;;;;;;;;;9.38;76.22;96223.96;108912;1251;95593;-74
2023/03/25 06:37:47;;;;;;;;;;;;;;;9.37;76.30;96227.70;108900;1251;103499;-74
2023/03/25 06:40:16;;;;;;;;;;;;;;;9.35;76.37;96235.02;108929;1251;101479;-74
2023/03/25 06:42:44;;;;;;;;;;;;;;;9.35;76.40;96240.91;108924;1251;100127;-75
2023/03/25 06:45:12;;;;;;;;;;;;;;;9.38;76.61;96241.58;108966;1251;95549;-75
2023/03/25 06:47:40;;;;;;;;;;;;;;;9.39;76.76;96242.43;108901;1251;95603;-73
2023/03/25 06:50:09;;;;;;;;;;;;;;;9.39;76.60;96236.17;108906;1251;103606;-74
2023/03/25 06:52:37;;;;;;;;;;;;;;;9.41;76.61;96232.54;108654;1254;101557;-74
2023/03/25 06:55:05;;;;;;;;;;;;;;;9.44;76.54;96234.05;108912;1251;100075;-74
2023/03/25 06:57:33;;;;;;;;;;;;;;;9.47;76.72;96236.61;108610;1252;95645;-73
2023/03/25 07:00:01;;;;;;;;;;;;;;;9.49;76.80;96241.80;108936;1251;95870;-74
2023/03/25 07:02:29;;;;;;;;;;;;;;;9.48;76.97;96240.54;108927;1251;103536;-73
2023/03/25 07:04:57;;;;;;;;;;;;;;;9.48;76.91;96237.25;108925;1251;101282;-73
2023/03/25 07:07:25;;;;;;;;;;;;;;;9.50;76.79;96237.02;108869;1251;98663;-75
2023/03/25 07:09:54;;;;;;;;;;;;;;;9.51;76.77;96241.90;108685;1253;95644;-73
2023/03/25 07:12:23;;;;;;;;;;;;;;;9.53;76.79;96239.36;108785;1251;95782;-74
2023/03/25 07:14:57;;;;;;;;;;;;;;;9.55;76.83;96239.92;108862;1251;103947;-74
2023/03/25 07:17:26;;;;;;;;;;;;;;;9.57;76.95;96235.40;108700;1250;101120;-73
2023/03/25 07:19:53;;;;;;;;;;;;;;;9.61;76.89;96236.10;108889;1251;98438;-74
2023/03/25 07:22:21;;;;;;;;;;;;;;;9.64;77.02;96233.21;108916;1251;95875;-75
2023/03/25 07:24:51;;;;;;;;;;;;;;;9.68;76.97;96230.55;108719;1251;95911;-72
2023/03/25 07:27:19;;;;;;;;;;;;;;;9.70;77.10;96228.88;108887;1251;103669;-74
2023/03/25 07:29:47;;;;;;;;;;;;;;;9.74;77.17;96231.67;108975;1251;101191;-75
2023/03/25 07:32:15;;;;;;;;;;;;;;;9.79;77.06;96228.97;108857;1251;99819;-75
2023/03/25 07:34:43;;;;;;;;;;;;;;;9.83;76.97;96227.20;108678;1252;95640;-74
2023/03/25 07:37:11;;;;;;;;;;;;;;;9.85;77.12;96231.64;108882;1251;95632;-73
2023/03/25 07:39:39;;;;;;;;;;;;;;;9.88;77.11;96234.30;108908;1251;103795;-74
2023/03/25 07:42:07;;;;;;;;;;;;;;;9.93;77.00;96237.09;108955;1250;101562;-74
2023/03/25 07:44:35;;;;;;;;;;;;;;;9.99;76.93;96242.21;108897;1251;100245;-73
2023/03/25 07:47:02;;;;;;;;;;;;;;;10.05;76.85;96247.06;108783;1251;95627;-74
2023/03/25 07:49:30;;;;;;;;;;;;;;;10.09;76.82;96246.09;108911;1251;95623;-74
2023/03/25 07:51:58;;;;;;;;;;;;;;;10.13;76.75;96244.14;108706;1251;102707;-74
2023/03/25 07:54:27;;;;;;;;;;;;;;;10.16;76.66;96242.03;108850;1251;101379;-74
2023/03/25 07:56:55;;;;;;;;;;;;;;;10.20;76.75;96239.84;108864;1251;100319;-73
2023/03/25 07:59:24;;;;;;;;;;;;;;;10.26;76.48;96240.60;108811;1252;95796;-74
2023/03/25 08:01:52;;;;;;;;;;;;;;;10.32;76.40;96241.77;108735;1251;207677;-74
2023/03/25 08:04:20;;;;;;;;;;;;;;;10.38;76.10;96233.48;108696;1251;111275;-74
2023/03/25 08:06:48;;;;;;;;;;;;;;;10.43;75.84;96234.32;108694;1250;101354;-74
2023/03/25 08:09:16;;;;;;;;;;;;;;;10.49;75.63;96236.00;108812;1251;99833;-73
2023/03/25 08:11:44;;;;;;;;;;;;;;;10.56;75.84;96232.69;108907;1251;95615;-74
2023/03/25 08:14:12;;;;;;;;;;;;;;;10.62;75.78;96228.83;108851;1253;96522;-74
2023/03/25 08:16:40;;;;;;;;;;;;;;;10.70;75.55;96234.38;108851;1251;103317;-75
2023/03/25 08:19:09;;;;;;;;;;;;;;;10.79;75.66;96232.35;108817;1251;101489;-74
2023/03/25 08:21:36;;;;;;;;;;;;;;;10.87;75.27;96228.70;108833;1251;97770;-74
2023/03/25 08:24:05;;;;;;;;;;;;;;;10.92;74.98;96230.90;108847;1251;95748;-75
2023/03/25 08:26:34;;;;;;;;;;;;;;;10.98;74.89;96236.91;108909;1251;95914;-75
2023/03/25 08:29:03;;;;;;;;;;;;;;;11.07;75.12;96240.26;108916;1250;102679;-73
2023/03/25 08:31:32;;;;;;;;;;;;;;;11.15;75.04;96238.73;108885;1251;101358;-74
2023/03/25 08:34:00;;;;;;;;;;;;;;;11.23;74.91;96238.42;108633;1251;99864;-75
2023/03/25 08:36:29;;;;;;;;;;;;;;;11.32;74.63;96237.35;108818;1251;95549;-73
2023/03/25 08:38:57;;;;;;;;;;;;;;;11.39;74.48;96237.04;108997;1251;95597;-74
2023/03/25 08:41:25;;;;;;;;;;;;;;;11.48;74.26;96242.20;108904;1251;103426;-74
2023/03/25 08:43:53;;;;;;;;;;;;;;;11.57;74.00;96242.90;108959;1251;101264;-74
2023/03/25 08:46:21;;;;;;;;;;;;;;;11.66;73.91;96241.74;108835;1251;98954;-75
2023/03/25 08:48:49;;;;;;;;;;;;;;;11.74;73.60;96241.46;108885;1251;95597;-74
2023/03/25 08:51:18;;;;;;;;;;;;;;;11.82;73.42;96241.23;108923;1251;95643;-74
2023/03/25 08:53:46;;;;;;;;;;;;;;;11.92;73.22;96240.28;108889;1251;102255;-74
2023/03/25 08:56:14;;;;;;;;;;;;;;;11.97;72.88;96235.16;108893;1251;101370;-73
2023/03/25 08:58:42;;;;;;;;;;;;;;;12.01;72.58;96228.95;108894;1251;100353;-73
2023/03/25 09:01:10;;;;;;;;;;;;;;;12.16;72.64;96227.27;108917;1251;95925;-75
2023/03/25 09:03:39;;;;;;;;;;;;;;;12.35;72.70;96230.40;108678;1252;95813;-74
2023/03/25 09:06:08;;;;;;;;;;;;;;;12.45;72.05;96224.84;108892;1251;103485;-74
2023/03/25 09:08:37;;;;;;;;;;;;;;;12.52;71.64;96225.64;108863;1251;101230;-74
2023/03/25 09:11:05;;;;;;;;;;;;;;;12.67;71.42;96227.16;108832;1251;100201;-74
2023/03/25 09:13:33;;;;;;;;;;;;;;;12.86;71.32;96223.42;108653;1252;95619;-74
2023/03/25 09:16:01;;;;;;;;;;;;;;;13.11;71.51;96222.13;108942;1251;95615;-74
2023/03/25 09:18:30;;;;;;;;;;;;;;;13.50;71.03;96211.66;108655;1250;103587;-74
2023/03/25 09:20:59;;;;;;;;;;;;;;;13.98;70.23;96199.74;108908;1251;110248;-74
2023/03/25 09:23:27;;;;;;;;;;;;;;;14.38;69.43;96196.23;108696;1251;100076;-74
2023/03/25 09:25:59;;;;;;;;;;;;;;;14.54;68.60;96193.28;108847;1251;95562;-75
2023/03/25 09:28:27;;;;;;;;;;;;;;;14.51;67.81;96189.25;108972;1251;95591;-73
2023/03/25 09:30:55;;;;;;;;;;;;;;;14.44;67.45;96186.73;108958;1251;103655;-74
2023/03/25 09:33:23;;;;;;;;;;;;;;;14.39;67.48;96184.61;108961;1251;101325;-74
2023/03/25 09:35:51;;;;;;;;;;;;;;;14.41;67.13;96181.48;108803;1251;99829;-75
2023/03/25 09:38:19;;;;;;;;;;;;;;;14.45;66.81;96178.27;108823;1251;95506;-73
2023/03/25 09:40:47;;;;;;;;;;;;;;;14.65;65.93;96176.38;108921;1251;95632;-75
2023/03/25 09:43:39;;;;;;;;;;;;;;;15.01;65.45;96175.38;108841;1250;103718;-75
2023/03/25 09:46:08;;;;;;;;;;;;;;;15.39;64.67;96162.81;108922;1251;101233;-74
2023/03/25 09:48:41;;;;;;;;;;;;;;;15.48;64.05;96163.73;108827;1251;100115;-71
2023/03/25 09:51:22;;;;;;;;;;;;;;;15.47;63.58;96161.98;108834;1251;95523;-72
2023/03/25 09:54:10;;;;;;;;;;;;;;;15.40;63.25;96156.02;108902;1251;95725;-72
2023/03/25 09:56:38;;;;;;;;;;;;;;;15.37;63.08;96153.18;108945;1251;103911;-71
2023/03/25 09:59:10;;;;;;;;;;;;;;;15.64;62.07;96147.33;108726;1250;109921;-71
2023/03/25 10:01:57;;;;;;;;;;;;;;;15.94;61.34;96141.94;108843;1251;99705;-72
2023/03/25 10:04:31;;;;;;;;;;;;;;;16.44;60.90;96135.90;108905;1251;95970;-71
2023/03/25 10:06:59;;;;;;;;;;;;;;;16.79;59.78;96135.48;108905;1251;95602;-71
2023/03/25 10:09:27;;;;;;;;;;;;;;;16.89;59.21;96132.31;108867;1252;113200;-72
2023/03/25 10:12:01;;;;;;;;;;;;;;;17.25;58.55;96125.95;108889;1251;101264;-72
2023/03/25 10:14:38;;;;;;;;;;;;;;;17.69;57.74;96116.81;108866;1251;99796;-73
2023/03/25 10:17:09;;;;;;;;;;;;;;;18.16;56.76;96111.80;108898;1251;95871;-71
2023/03/25 10:19:53;;;;;;;;;;;;;;;18.56;55.51;96104.70;108918;1251;95624;-71
2023/03/25 10:22:42;;;;;;;;;;;;;;;18.81;54.69;96104.83;108861;1251;103666;-71
2023/03/25 10:25:15;;;;;;;;;;;;;;;19.17;53.63;96102.86;108622;1252;100060;-72
2023/03/25 10:27:49;;;;;;;;;;;;;;;19.43;53.03;96098.45;108844;1251;100187;-72
2023/03/25 10:30:26;;;;;;;;;;;;;;;19.40;52.10;96092.94;108936;1251;95675;-72
2023/03/25 10:33:02;;;;;;;;;;;;;;;19.37;51.39;96091.87;108917;1251;96489;-72
2023/03/25 10:35:31;;;;;;;;;;;;;;;19.44;50.99;96088.66;108979;1251;103280;-73
2023/03/25 10:38:02;;;;;;;;;;;;;;;19.56;50.11;96083.31;108973;1250;101212;-72
2023/03/25 10:40:33;;;;;;;;;;;;;;;19.71;49.30;96074.06;108897;1251;99920;-72
2023/03/25 10:43:17;;;;;;;;;;;;;;;19.82;48.46;96071.63;108897;1251;97063;-73
2023/03/25 10:45:46;;;;;;;;;;;;;;;19.91;48.03;96070.59;108834;1251;96050;-73
2023/03/25 10:48:14;;;;;;;;;;;;;;;20.07;47.64;96065.63;108973;1252;103767;-72
2023/03/25 10:50:42;;;;;;;;;;;;;;;19.93;45.97;96063.70;108963;1251;101295;-72
2023/03/25 10:53:23;;;;;;;;;;;;;;;19.42;45.15;96056.16;108852;1251;99881;-72
2023/03/25 10:55:55;;;;;;;;;;;;;;;19.10;45.05;96054.95;108886;1251;95568;-72
2023/03/25 10:58:24;;;;;;;;;;;;;;;19.15;45.45;96051.58;108938;1251;95594;-73
2023/03/25 11:00:52;;;;;;;;;;;;;;;19.30;44.97;96043.18;108918;1251;103647;-72
2023/03/25 11:03:24;;;;;;;;;;;;;;;19.53;44.81;96040.67;108931;1251;101384;-72
2023/03/25 11:05:52;;;;;;;;;;;;;;;19.68;44.15;96039.30;108898;1251;99718;-71
2023/03/25 11:08:22;;;;;;;;;;;;;;;19.91;43.64;96036.34;108883;1251;95585;-72
2023/03/25 11:10:56;;;;;;;;;;;;;;;20.33;43.65;96035.23;108863;1251;96422;-72
2023/03/25 11:13:25;;;;;;;;;;;;;;;20.74;43.21;96030.77;108881;1251;103533;-72
2023/03/25 11:16:01;;;;;;;;;;;;;;;20.92;41.92;96028.83;108909;1250;101443;-72
2023/03/25 11:18:39;;;;;;;;;;;;;;;20.74;41.65;96034.80;108553;1252;99832;-72
2023/03/25 11:21:08;;;;;;;;;;;;;;;20.55;41.59;96032.30;108869;1251;95943;-72
2023/03/25 11:23:51;;;;;;;;;;;;;;;20.11;41.10;96032.77;108913;1251;95819;-72
2023/03/25 11:26:18;;;;;;;;;;;;;;;20.10;41.78;96028.17;108890;1251;103388;-73
2023/03/25 11:28:48;;;;;;;;;;;;;;;20.47;41.30;96027.44;108947;1251;101217;-72
2023/03/25 11:31:21;;;;;;;;;;;;;;;20.61;42.11;96020.23;108883;1251;100134;-72
2023/03/25 11:34:07;;;;;;;;;;;;;;;20.78;41.96;96012.55;108916;1251;95532;-72
2023/03/25 11:36:38;;;;;;;;;;;;;;;21.23;41.22;96013.54;108906;1251;96333;-73
2023/03/25 11:39:19;;;;;;;;;;;;;;;21.79;40.54;96013.73;108858;1251;103544;-72
2023/03/25 11:41:47;;;;;;;;;;;;;;;21.72;40.03;96012.71;108878;1250;101077;-73
2023/03/25 11:44:21;;;;;;;;;;;;;;;21.33;39.68;96012.20;108901;1251;100030;-73
2023/03/25 11:46:51;;;;;;;;;;;;;;;20.98;39.80;96012.66;108887;1251;95826;-72
2023/03/25 11:49:21;;;;;;;;;;;;;;;20.54;39.60;96017.67;108932;1251;95604;-72
2023/03/25 11:51:56;;;;;;;;;;;;;;;20.12;40.39;96015.99;108914;1251;103382;-72
2023/03/25 11:54:26;;;;;;;;;;;;;;;19.81;40.19;96009.32;108622;1252;102656;-72
2023/03/25 11:56:54;;;;;;;;;;;;;;;19.21;40.03;96009.91;108833;1251;99972;-72
2023/03/25 11:59:43;;;;;;;;;;;;;;;18.89;40.63;96008.80;108905;1251;95494;-72
2023/03/25 12:02:38;;;;;;;;;;;;;;;18.56;40.31;96009.27;108659;1251;95754;-73
2023/03/25 12:05:11;;;;;;;;;;;;;;;18.44;41.02;96014.75;108972;1251;103502;-72
2023/03/25 12:07:43;;;;;;;;;;;;;;;18.67;41.41;96007.83;108936;1251;100964;-73
2023/03/25 12:10:28;;;;;;;;;;;;;;;19.15;41.65;96001.48;108808;1252;100110;-72
2023/03/25 12:13:14;;;;;;;;;;;;;;;19.64;41.28;96007.95;108854;1252;95555;-72
2023/03/25 12:15:48;;;;;;;;;;;;;;;19.58;39.76;96007.52;108894;1251;95701;-72
2023/03/25 12:18:35;;;;;;;;;;;;;;;18.96;39.73;96005.51;108962;1251;103463;-72
2023/03/25 12:21:11;;;;;;;;;;;;;;;18.52;40.53;95999.85;108932;1251;101508;-72
2023/03/25 12:23:55;;;;;;;;;;;;;;;18.37;40.06;95998.14;108888;1251;100058;-73
2023/03/25 12:26:23;;;;;;;;;;;;;;;17.91;40.34;95997.87;108896;1251;95979;-72
2023/03/25 12:29:02;;;;;;;;;;;;;;;17.49;39.60;95995.88;108905;1251;95595;-72
2023/03/25 12:31:30;;;;;;;;;;;;;;;17.02;40.01;95995.98;108934;1251;103673;-71
2023/03/25 12:33:58;;;;;;;;;;;;;;;16.64;40.33;95999.22;108942;1251;101279;-72
2023/03/25 12:36:39;;;;;;;;;;;;;;;16.32;40.43;96001.98;108901;1251;100101;-72
2023/03/25 12:39:19;;;;;;;;;;;;;;;16.19;40.99;96006.36;108880;1251;95569;-72
2023/03/25 12:42:10;;;;;;;;;;;;;;;16.18;40.88;96008.65;108930;1251;95603;-73
2023/03/25 12:44:57;;;;;;;;;;;;;;;16.15;41.18;96016.52;108258;1259;103467;-72
2023/03/25 12:47:25;;;;;;;;;;;;;;;16.22;41.25;96014.77;108166;1259;100676;-71
2023/03/25 12:50:00;;;;;;;;;;;;;;;16.22;41.65;96016.41;108245;1259;99316;-73
2023/03/25 12:52:28;;;;;;;;;;;;;;;16.25;41.56;96021.09;108249;1259;95802;-73
2023/03/25 12:55:22;;;;;;;;;;;;;;;16.35;41.58;96018.47;108292;1259;95898;-72